KB4QOR Weather Reports


Display with metric or nautical units.
time (UTC)temp
F
wind
direction
speed
MPH
gust
MPH
rain 1hr
in
rain 24hr
in
rain mn
in
humidity
%
barometer
mb
20240718051516 77 14 5.0 12.0 0.00 0.05 0.00 74 1016.0
20240718050013 77 41 4.0 11.0 0.00 0.05 0.00 72 1015.9
20240718044515 77 38 6.0 13.0 0.00 0.05 0.00 74 1015.9
20240718043012 78 13 7.0 12.0 0.00 0.05 0.00 74 1015.7
20240718041526 78 22 4.0 12.0 0.00 0.05 0.00 74 1015.6
20240718040020 78 7 3.0 9.0 0.00 0.05 0.00 74 1015.4
20240718034515 79 39 5.0 12.0 0.00 0.06 0.05 73 1015.5
20240718033015 79 359 3.0 11.0 0.00 0.06 0.05 73 1015.5
20240718031516 79 36 6.0 11.0 0.00 0.06 0.05 72 1015.4
20240718030014 80 29 8.0 16.0 0.00 0.06 0.05 74 1015.3
20240718024514 80 58 0.0 3.0 0.00 0.06 0.05 75 1015.0
20240718023016 80 0 1.0 3.0 0.00 0.06 0.05 75 1014.9
20240718021525 80 0 0.0 1.0 0.00 0.06 0.05 74 1014.8
20240718020013 80 29 0.0 2.0 0.00 0.06 0.05 74 1014.6
20240718014516 80 30 0.0 5.0 0.00 0.06 0.05 73 1014.4
20240718013015 81 15 2.0 5.0 0.00 0.06 0.05 72 1014.2
20240718011524 81 0 2.0 6.0 0.00 0.06 0.05 71 1014.1
20240718010013 81 59 3.0 8.0 0.00 0.06 0.05 70 1013.9
20240718004535 82 55 3.0 10.0 0.00 0.06 0.05 69 1013.8
20240718003017 82 0 0.0 6.0 0.00 0.06 0.05 68 1013.6
20240718001515 82 15 2.0 9.0 0.00 0.06 0.05 67 1013.2
20240718000013 83 31 5.0 9.0 0.00 0.06 0.05 68 1012.8
20240717234519 83 26 4.0 9.0 0.00 0.06 0.05 66 1012.7
20240717233015 84 33 5.0 13.0 0.00 0.06 0.05 65 1012.6
20240717231515 85 345 2.0 10.0 0.00 0.06 0.05 65 1012.6
20240717230015 85 317 7.0 10.0 0.00 0.06 0.05 64 1012.8
20240717224518 86 233 4.0 11.0 0.00 0.06 0.05 64 1012.8
20240717223014 86 350 4.0 12.0 0.00 0.06 0.05 63 1012.7
20240717221514 87 350 6.0 12.0 0.00 0.06 0.05 61 1012.9
20240717220017 87 279 6.0 12.0 0.00 0.06 0.05 61 1012.6
20240717214514 87 257 4.0 11.0 0.00 0.06 0.05 61 1012.5
20240717213013 86 206 7.0 15.0 0.00 0.06 0.05 63 1012.6
20240717211517 86 342 7.0 12.0 0.00 0.06 0.05 62 1012.5
20240717210014 87 271 8.0 17.0 0.00 0.06 0.05 62 1012.7
20240717204523 86 276 8.0 14.0 0.00 0.06 0.05 62 1012.6
20240717203019 87 310 11.0 15.0 0.00 0.06 0.05 60 1013.0
20240717201529 87 262 5.0 15.0 0.00 0.06 0.05 63 1013.2
20240717200015 86 333 7.0 13.0 0.00 0.06 0.05 65 1013.3
20240717194516 85 317 6.0 15.0 0.00 0.06 0.05 66 1013.6
20240717193026 85 265 5.0 13.0 0.00 0.06 0.05 66 1013.9
20240717191518 84 295 4.0 12.0 0.00 0.06 0.05 68 1013.8
20240717190019 83 219 5.0 12.0 0.00 0.06 0.05 71 1014.0
20240717184517 82 350 6.0 15.0 0.00 0.06 0.05 69 1014.1
20240717183037 83 350 6.0 11.0 0.00 0.06 0.05 70 1014.2
20240717181515 82 195 7.0 17.0 0.00 0.06 0.05 69 1014.3
20240717180013 82 350 9.0 14.0 0.01 0.06 0.05 71 1014.5
20240717174515 81 350 6.0 12.0 0.01 0.06 0.05 73 1014.6
20240717173012 81 311 6.0 14.0 0.01 0.06 0.05 74 1014.9
20240717171518 80 350 7.0 14.0 0.01 0.06 0.05 73 1014.8
20240717170021 81 284 7.0 13.0 0.00 0.05 0.04 72 1014.9
20240717164514 82 310 4.0 10.0 0.00 0.05 0.04 73 1014.6
20240717163015 81 294 4.0 10.0 0.00 0.05 0.04 74 1014.6
20240717161516 81 350 6.0 11.0 0.00 0.05 0.04 74 1014.7
20240717160012 82 350 7.0 13.0 0.00 0.05 0.04 74 1014.5
20240717154512 81 239 4.0 10.0 0.00 0.05 0.04 76 1014.5
20240717153016 79 297 5.0 11.0 0.00 0.05 0.04 79 1014.6
20240717151518 78 342 4.0 10.0 0.00 0.05 0.04 83 1014.6
20240717150021 77 276 2.0 9.0 0.00 0.05 0.04 86 1014.5
20240717144513 77 257 3.0 7.0 0.00 0.05 0.04 87 1014.1
20240717143026 76 259 2.0 6.0 0.00 0.05 0.04 89 1014.1
20240717141521 75 286 0.0 3.0 0.00 0.05 0.04 91 1013.6
20240717140015 74 282 1.0 5.0 0.01 0.05 0.04 92 1013.9
20240717134515 74 288 2.0 7.0 0.01 0.05 0.04 92 1013.9
20240717133016 74 296 2.0 6.0 0.01 0.05 0.04 92 1014.1
20240717131518 74 350 1.0 7.0 0.01 0.05 0.04 92 1013.8
20240717130016 73 296 2.0 8.0 0.00 0.04 0.03 93 1014.0
20240717124522 73 296 4.0 8.0 0.00 0.04 0.03 93 1014.1
20240717123021 73 274 1.0 3.0 0.00 0.04 0.03 93 1014.1
20240717121515 73 0 1.0 3.0 0.00 0.04 0.03 93 1013.6
20240717120016 73 0 0.0 2.0 0.00 0.04 0.03 93 1013.1
20240717114516 72 0 0.0 0.0 0.01 0.04 0.03 93 1013.0
20240717113027 72 0 0.0 0.0 0.01 0.04 0.03 93 1012.7
20240717111513 72 144 0.0 2.0 0.01 0.04 0.03 92 1012.6
20240717110017 72 108 0.0 2.0 0.01 0.04 0.03 92 1012.5
20240717104515 72 0 0.0 2.0 0.01 0.03 0.02 92 1012.8
20240717103015 72 0 0.0 5.0 0.01 0.03 0.02 93 1012.9
20240717101513 72 196 2.0 5.0 0.01 0.03 0.02 92 1013.0
20240717100013 72 193 2.0 4.0 0.01 0.03 0.02 92 1013.3
20240717094515 72 271 1.0 7.0 0.00 0.02 0.01 92 1013.6
20240717093016 72 292 2.0 7.0 0.00 0.02 0.01 92 1013.5
20240717091514 73 213 3.0 6.0 0.00 0.02 0.01 92 1013.2
20240717090013 72 238 1.0 7.0 0.00 0.02 0.01 92 1012.9
20240717084515 73 188 2.0 6.0 0.00 0.02 0.01 93 1013.0
20240717083013 73 217 5.0 10.0 0.00 0.02 0.01 93 1012.8
20240717081514 74 227 3.0 6.0 0.00 0.02 0.01 93 1012.4
20240717080016 73 213 2.0 7.0 0.00 0.02 0.01 93 1012.0
20240717074516 73 223 3.0 8.0 0.00 0.02 0.01 93 1012.1